sensor_id;sensor_type;location;lat;lon;timestamp;pressure;altitude;pressure_sealevel;temperature;humidity
39411;BME280;26579;43.238;23.124;2023-04-06T00:00:37;96670.22;;;4.26;68.88
39411;BME280;26579;43.238;23.124;2023-04-06T00:03:03;96692.41;;;4.43;68.72
39411;BME280;26579;43.238;23.124;2023-04-06T00:05:28;96679.31;;;4.32;68.75
39411;BME280;26579;43.238;23.124;2023-04-06T00:07:54;96687.25;;;4.43;69.23
39411;BME280;26579;43.238;23.124;2023-04-06T00:10:20;96672.91;;;4.25;69.91
39411;BME280;26579;43.238;23.124;2023-04-06T00:12:45;96674.09;;;4.34;68.80
39411;BME280;26579;43.238;23.124;2023-04-06T00:15:11;96668.94;;;4.34;68.62
39411;BME280;26579;43.238;23.124;2023-04-06T00:17:37;96659.09;;;4.26;69.52
39411;BME280;26579;43.238;23.124;2023-04-06T00:20:03;96683.84;;;4.28;69.86
39411;BME280;26579;43.238;23.124;2023-04-06T00:22:29;96672.34;;;4.34;69.28
39411;BME280;26579;43.238;23.124;2023-04-06T00:24:54;96669.84;;;4.32;70.12
39411;BME280;26579;43.238;23.124;2023-04-06T00:27:20;96666.22;;;4.49;69.43
39411;BME280;26579;43.238;23.124;2023-04-06T00:29:46;96661.13;;;4.62;68.29
39411;BME280;26579;43.238;23.124;2023-04-06T00:32:12;96636.03;;;4.51;66.86
39411;BME280;26579;43.238;23.124;2023-04-06T00:34:37;96662.84;;;4.76;66.24
39411;BME280;26579;43.238;23.124;2023-04-06T00:37:03;96660.19;;;4.78;66.28
39411;BME280;26579;43.238;23.124;2023-04-06T00:39:29;96663.00;;;4.87;65.37
39411;BME280;26579;43.238;23.124;2023-04-06T00:41:55;96665.78;;;4.84;65.61
39411;BME280;26579;43.238;23.124;2023-04-06T00:44:21;96665.66;;;4.86;66.67
39411;BME280;26579;43.238;23.124;2023-04-06T00:46:47;96649.13;;;4.75;66.41
39411;BME280;26579;43.238;23.124;2023-04-06T00:49:13;96658.97;;;4.83;65.31
39411;BME280;26579;43.238;23.124;2023-04-06T00:51:39;96660.22;;;4.90;64.98
39411;BME280;26579;43.238;23.124;2023-04-06T00:54:05;96661.78;;;4.93;65.94
39411;BME280;26579;43.238;23.124;2023-04-06T00:56:33;96648.06;;;4.92;65.59
39411;BME280;26579;43.238;23.124;2023-04-06T00:58:59;96656.44;;;4.96;65.88
39411;BME280;26579;43.238;23.124;2023-04-06T01:01:25;96646.38;;;4.79;66.67
39411;BME280;26579;43.238;23.124;2023-04-06T01:03:53;96661.06;;;4.91;66.21
39411;BME280;26579;43.238;23.124;2023-04-06T01:06:20;96662.94;;;4.89;66.06
39411;BME280;26579;43.238;23.124;2023-04-06T01:08:54;96648.50;;;4.72;67.38
39411;BME280;26579;43.238;23.124;2023-04-06T01:11:22;96657.63;;;4.78;66.92
39411;BME280;26579;43.238;23.124;2023-04-06T01:13:49;96658.47;;;4.91;67.00
39411;BME280;26579;43.238;23.124;2023-04-06T01:16:41;96651.66;;;4.90;66.36
39411;BME280;26579;43.238;23.124;2023-04-06T01:19:16;96649.44;;;4.98;66.13
39411;BME280;26579;43.238;23.124;2023-04-06T01:21:49;96649.91;;;4.90;66.75
39411;BME280;26579;43.238;23.124;2023-04-06T01:24:36;96652.88;;;4.84;66.82
39411;BME280;26579;43.238;23.124;2023-04-06T01:27:07;96648.06;;;4.92;66.79
39411;BME280;26579;43.238;23.124;2023-04-06T01:29:47;96644.88;;;4.89;67.03
39411;BME280;26579;43.238;23.124;2023-04-06T01:32:29;96656.63;;;4.93;67.30
39411;BME280;26579;43.238;23.124;2023-04-06T01:34:55;96643.75;;;4.93;67.47
39411;BME280;26579;43.238;23.124;2023-04-06T01:37:20;96640.03;;;4.97;67.45
39411;BME280;26579;43.238;23.124;2023-04-06T01:39:46;96645.38;;;4.94;68.02
39411;BME280;26579;43.238;23.124;2023-04-06T01:42:20;96643.31;;;4.86;68.04
39411;BME280;26579;43.238;23.124;2023-04-06T01:44:47;96646.59;;;4.88;67.55
39411;BME280;26579;43.238;23.124;2023-04-06T01:47:14;96635.56;;;4.86;67.50
39411;BME280;26579;43.238;23.124;2023-04-06T01:49:40;96631.84;;;4.90;67.18
39411;BME280;26579;43.238;23.124;2023-04-06T01:52:07;96630.50;;;4.85;67.38
39411;BME280;26579;43.238;23.124;2023-04-06T01:54:34;96622.31;;;4.78;67.67
39411;BME280;26579;43.238;23.124;2023-04-06T01:57:10;96630.41;;;4.86;68.13
39411;BME280;26579;43.238;23.124;2023-04-06T01:59:43;96610.59;;;4.87;68.10
39411;BME280;26579;43.238;23.124;2023-04-06T02:02:27;96623.72;;;4.96;68.43
39411;BME280;26579;43.238;23.124;2023-04-06T02:04:58;96611.81;;;4.81;69.10
39411;BME280;26579;43.238;23.124;2023-04-06T02:07:25;96622.63;;;5.01;68.05
39411;BME280;26579;43.238;23.124;2023-04-06T02:09:54;96623.53;;;4.99;67.89
39411;BME280;26579;43.238;23.124;2023-04-06T02:12:24;96611.97;;;4.92;67.69
39411;BME280;26579;43.238;23.124;2023-04-06T02:14:50;96619.19;;;5.00;68.40
39411;BME280;26579;43.238;23.124;2023-04-06T02:17:16;96599.84;;;4.80;68.08
39411;BME280;26579;43.238;23.124;2023-04-06T02:19:41;96602.78;;;5.01;67.13
39411;BME280;26579;43.238;23.124;2023-04-06T02:22:07;96601.03;;;5.02;67.45
39411;BME280;26579;43.238;23.124;2023-04-06T02:24:33;96617.06;;;5.07;67.88
39411;BME280;26579;43.238;23.124;2023-04-06T02:26:59;96616.38;;;4.90;68.61
39411;BME280;26579;43.238;23.124;2023-04-06T02:29:25;96621.34;;;4.93;68.61
39411;BME280;26579;43.238;23.124;2023-04-06T02:31:50;96622.97;;;4.94;68.94
39411;BME280;26579;43.238;23.124;2023-04-06T02:34:16;96599.06;;;4.92;68.44
39411;BME280;26579;43.238;23.124;2023-04-06T02:36:46;96601.25;;;4.98;68.45
39411;BME280;26579;43.238;23.124;2023-04-06T02:39:13;96618.81;;;5.06;68.63
39411;BME280;26579;43.238;23.124;2023-04-06T02:41:39;96608.28;;;5.09;68.57
39411;BME280;26579;43.238;23.124;2023-04-06T02:44:07;96609.59;;;5.02;69.37
39411;BME280;26579;43.238;23.124;2023-04-06T02:46:38;96621.09;;;5.11;68.61
39411;BME280;26579;43.238;23.124;2023-04-06T02:49:04;96632.03;;;5.14;68.82
39411;BME280;26579;43.238;23.124;2023-04-06T02:51:32;96617.56;;;5.12;69.35
39411;BME280;26579;43.238;23.124;2023-04-06T02:54:07;96619.44;;;5.10;69.25
39411;BME280;26579;43.238;23.124;2023-04-06T02:56:33;96625.31;;;5.12;69.71
39411;BME280;26579;43.238;23.124;2023-04-06T02:58:59;96627.19;;;5.10;69.28
39411;BME280;26579;43.238;23.124;2023-04-06T03:01:28;96603.91;;;4.97;68.84
39411;BME280;26579;43.238;23.124;2023-04-06T03:03:58;96614.06;;;5.13;67.75
39411;BME280;26579;43.238;23.124;2023-04-06T03:06:26;96619.03;;;5.16;67.74
39411;BME280;26579;43.238;23.124;2023-04-06T03:08:56;96617.47;;;5.01;68.86
39411;BME280;26579;43.238;23.124;2023-04-06T03:11:21;96616.13;;;5.08;68.85
39411;BME280;26579;43.238;23.124;2023-04-06T03:13:50;96616.13;;;5.08;68.34
39411;BME280;26579;43.238;23.124;2023-04-06T03:16:15;96621.09;;;5.11;68.01
39411;BME280;26579;43.238;23.124;2023-04-06T03:18:42;96603.69;;;5.00;66.99
39411;BME280;26579;43.238;23.124;2023-04-06T03:21:08;96604.63;;;4.99;66.98
39411;BME280;26579;43.238;23.124;2023-04-06T03:23:43;96624.59;;;5.10;66.81
39411;BME280;26579;43.238;23.124;2023-04-06T03:26:09;96619.44;;;5.10;66.48
39411;BME280;26579;43.238;23.124;2023-04-06T03:28:34;96596.47;;;4.92;66.86
39411;BME280;26579;43.238;23.124;2023-04-06T03:31:03;96615.91;;;4.98;67.04
39411;BME280;26579;43.238;23.124;2023-04-06T03:34:07;96620.66;;;5.04;66.89
39411;BME280;26579;43.238;23.124;2023-04-06T03:36:35;96614.34;;;4.95;67.53
39411;BME280;26579;43.238;23.124;2023-04-06T03:39:02;96615.78;;;4.99;68.56
39411;BME280;26579;43.238;23.124;2023-04-06T03:41:31;96613.66;;;5.06;68.07
39411;BME280;26579;43.238;23.124;2023-04-06T03:44:17;96614.56;;;5.05;68.43
39411;BME280;26579;43.238;23.124;2023-04-06T03:46:43;96603.22;;;5.08;67.51
39411;BME280;26579;43.238;23.124;2023-04-06T03:49:10;96607.88;;;5.15;67.39
39411;BME280;26579;43.238;23.124;2023-04-06T03:51:36;96616.34;;;5.17;67.65
39411;BME280;26579;43.238;23.124;2023-04-06T03:54:02;96601.16;;;5.13;68.28
39411;BME280;26579;43.238;23.124;2023-04-06T03:56:27;96611.50;;;5.13;67.49
39411;BME280;26579;43.238;23.124;2023-04-06T03:58:53;96616.66;;;5.13;67.77
39411;BME280;26579;43.238;23.124;2023-04-06T04:01:20;96614.47;;;5.07;68.13
39411;BME280;26579;43.238;23.124;2023-04-06T04:03:46;96620.53;;;5.06;68.24
39411;BME280;26579;43.238;23.124;2023-04-06T04:06:13;96616.59;;;5.00;69.03
39411;BME280;26579;43.238;23.124;2023-04-06T04:08:40;96622.81;;;4.97;69.00
39411;BME280;26579;43.238;23.124;2023-04-06T04:11:07;96625.50;;;5.09;68.73
39411;BME280;26579;43.238;23.124;2023-04-06T04:13:33;96625.72;;;5.06;69.05
39411;BME280;26579;43.238;23.124;2023-04-06T04:16:01;96625.41;;;5.10;68.83
39411;BME280;26579;43.238;23.124;2023-04-06T04:18:27;96613.00;;;5.03;68.47
39411;BME280;26579;43.238;23.124;2023-04-06T04:20:53;96621.69;;;5.14;68.33
39411;BME280;26579;43.238;23.124;2023-04-06T04:23:20;96614.91;;;5.13;68.49
39411;BME280;26579;43.238;23.124;2023-04-06T04:25:46;96611.06;;;5.06;68.36
39411;BME280;26579;43.238;23.124;2023-04-06T04:28:12;96615.03;;;5.25;68.29
39411;BME280;26579;43.238;23.124;2023-04-06T04:30:40;96616.47;;;5.29;68.77
39411;BME280;26579;43.238;23.124;2023-04-06T04:33:09;96628.16;;;5.34;68.93
39411;BME280;26579;43.238;23.124;2023-04-06T04:35:35;96624.44;;;5.38;68.17
39411;BME280;26579;43.238;23.124;2023-04-06T04:38:01;96620.72;;;5.42;68.19
39411;BME280;26579;43.238;23.124;2023-04-06T04:40:27;96614.63;;;5.31;67.69
39411;BME280;26579;43.238;23.124;2023-04-06T04:43:01;96619.88;;;5.29;67.99
39411;BME280;26579;43.238;23.124;2023-04-06T04:45:31;96626.50;;;5.33;67.37
39411;BME280;26579;43.238;23.124;2023-04-06T04:48:00;96624.94;;;5.31;66.97
39411;BME280;26579;43.238;23.124;2023-04-06T04:50:32;96623.91;;;5.33;67.51
39411;BME280;26579;43.238;23.124;2023-04-06T04:52:58;96624.41;;;5.26;67.20
39411;BME280;26579;43.238;23.124;2023-04-06T04:55:26;96625.34;;;5.37;67.53
39411;BME280;26579;43.238;23.124;2023-04-06T04:57:54;96621.25;;;5.48;66.91
39411;BME280;26579;43.238;23.124;2023-04-06T05:00:26;96623.63;;;5.51;66.57
39411;BME280;26579;43.238;23.124;2023-04-06T05:02:56;96619.50;;;5.61;66.92
39411;BME280;26579;43.238;23.124;2023-04-06T05:05:28;96627.16;;;5.75;66.23
39411;BME280;26579;43.238;23.124;2023-04-06T05:07:58;96623.31;;;5.81;65.54
39411;BME280;26579;43.238;23.124;2023-04-06T05:10:43;96612.38;;;5.77;65.18
39411;BME280;26579;43.238;23.124;2023-04-06T05:13:09;96614.47;;;5.98;64.78
39411;BME280;26579;43.238;23.124;2023-04-06T05:15:35;96626.22;;;6.02;64.92
39411;BME280;26579;43.238;23.124;2023-04-06T05:18:09;96628.50;;;6.06;63.55
39411;BME280;26579;43.238;23.124;2023-04-06T05:20:35;96629.63;;;6.15;63.52
39411;BME280;26579;43.238;23.124;2023-04-06T05:23:01;96617.88;;;6.11;63.64
39411;BME280;26579;43.238;23.124;2023-04-06T05:25:28;96627.56;;;6.20;63.63
39411;BME280;26579;43.238;23.124;2023-04-06T05:27:58;96615.69;;;6.18;62.66
39411;BME280;26579;43.238;23.124;2023-04-06T05:30:29;96617.22;;;6.20;62.12
39411;BME280;26579;43.238;23.124;2023-04-06T05:32:55;96633.31;;;6.37;62.26
39411;BME280;26579;43.238;23.124;2023-04-06T05:35:22;96631.13;;;6.43;61.65
39411;BME280;26579;43.238;23.124;2023-04-06T05:37:52;96614.06;;;6.41;61.09
39411;BME280;26579;43.238;23.124;2023-04-06T05:40:21;96619.72;;;6.58;60.23
39411;BME280;26579;43.238;23.124;2023-04-06T05:42:47;96622.75;;;6.76;59.75
39411;BME280;26579;43.238;23.124;2023-04-06T05:45:13;96625.06;;;6.92;56.24
39411;BME280;26579;43.238;23.124;2023-04-06T05:47:39;96611.59;;;7.11;53.80
39411;BME280;26579;43.238;23.124;2023-04-06T05:50:16;96614.91;;;7.13;53.04
39411;BME280;26579;43.238;23.124;2023-04-06T05:52:42;96605.03;;;7.18;51.60
39411;BME280;26579;43.238;23.124;2023-04-06T05:55:10;96605.91;;;7.30;48.44
39411;BME280;26579;43.238;23.124;2023-04-06T05:57:38;96597.91;;;7.44;49.34
39411;BME280;26579;43.238;23.124;2023-04-06T06:00:05;96589.81;;;7.49;47.29
39411;BME280;26579;43.238;23.124;2023-04-06T06:02:48;96578.97;;;7.44;47.52
39411;BME280;26579;43.238;23.124;2023-04-06T06:05:18;96581.09;;;7.50;47.16
39411;BME280;26579;43.238;23.124;2023-04-06T06:07:45;96589.41;;;7.78;47.75
39411;BME280;26579;43.238;23.124;2023-04-06T06:10:11;96584.91;;;8.02;48.26
39411;BME280;26579;43.238;23.124;2023-04-06T06:12:37;96586.28;;;8.29;46.32
39411;BME280;26579;43.238;23.124;2023-04-06T06:15:03;96591.72;;;8.48;45.40
39411;BME280;26579;43.238;23.124;2023-04-06T06:17:36;96586.28;;;8.63;46.50
39411;BME280;26579;43.238;23.124;2023-04-06T06:20:02;96587.44;;;8.70;44.33
39411;BME280;26579;43.238;23.124;2023-04-06T06:22:28;96588.84;;;8.74;44.67
39411;BME280;26579;43.238;23.124;2023-04-06T06:24:54;96579.59;;;8.81;44.73
39411;BME280;26579;43.238;23.124;2023-04-06T06:27:20;96592.09;;;8.87;43.88
39411;BME280;26579;43.238;23.124;2023-04-06T06:29:49;96573.75;;;9.00;43.70
39411;BME280;26579;43.238;23.124;2023-04-06T06:32:15;96582.84;;;9.26;43.71
39411;BME280;26579;43.238;23.124;2023-04-06T06:34:41;96584.06;;;9.22;43.20
39411;BME280;26579;43.238;23.124;2023-04-06T06:37:08;96569.84;;;9.05;43.10
39411;BME280;26579;43.238;23.124;2023-04-06T06:39:36;96553.44;;;9.05;43.16
39411;BME280;26579;43.238;23.124;2023-04-06T06:42:02;96581.72;;;9.19;43.02
39411;BME280;26579;43.238;23.124;2023-04-06T06:44:46;96564.28;;;9.31;43.51
39411;BME280;26579;43.238;23.124;2023-04-06T06:47:12;96583.03;;;9.35;43.45
39411;BME280;26579;43.238;23.124;2023-04-06T06:49:38;96572.53;;;9.57;43.56
39411;BME280;26579;43.238;23.124;2023-04-06T06:52:04;96566.13;;;9.40;42.64
39411;BME280;26579;43.238;23.124;2023-04-06T06:54:29;96577.03;;;9.55;43.36
39411;BME280;26579;43.238;23.124;2023-04-06T06:56:57;96566.06;;;9.82;45.10
39411;BME280;26579;43.238;23.124;2023-04-06T06:59:24;96575.03;;;9.99;44.06
39411;BME280;26579;43.238;23.124;2023-04-06T07:01:52;96553.97;;;10.02;43.84
39411;BME280;26579;43.238;23.124;2023-04-06T07:04:19;96582.25;;;10.26;43.79
39411;BME280;26579;43.238;23.124;2023-04-06T07:06:46;96571.81;;;10.07;41.55
39411;BME280;26579;43.238;23.124;2023-04-06T07:09:12;96580.66;;;10.35;40.71
39411;BME280;26579;43.238;23.124;2023-04-06T07:11:39;96554.72;;;10.24;40.69
39411;BME280;26579;43.238;23.124;2023-04-06T07:14:05;96565.09;;;10.64;41.08
39411;BME280;26579;43.238;23.124;2023-04-06T07:16:30;96554.44;;;10.86;42.02
39411;BME280;26579;43.238;23.124;2023-04-06T07:18:56;96559.13;;;11.12;41.46
39411;BME280;26579;43.238;23.124;2023-04-06T07:21:22;96554.72;;;11.32;39.75
39411;BME280;26579;43.238;23.124;2023-04-06T07:23:47;96569.63;;;11.40;38.73
39411;BME280;26579;43.238;23.124;2023-04-06T07:26:14;96561.94;;;11.48;38.52
39411;BME280;26579;43.238;23.124;2023-04-06T07:28:39;96539.56;;;11.55;38.64
39411;BME280;26579;43.238;23.124;2023-04-06T07:31:05;96544.06;;;11.72;39.11
39411;BME280;26579;43.238;23.124;2023-04-06T07:33:31;96554.56;;;11.81;38.76
39411;BME280;26579;43.238;23.124;2023-04-06T07:35:58;96540.78;;;12.08;39.59
39411;BME280;26579;43.238;23.124;2023-04-06T07:38:23;96538.69;;;12.39;36.75
39411;BME280;26579;43.238;23.124;2023-04-06T07:40:50;96546.72;;;12.73;36.87
39411;BME280;26579;43.238;23.124;2023-04-06T07:43:16;96534.56;;;12.64;36.63
39411;BME280;26579;43.238;23.124;2023-04-06T07:45:42;96540.06;;;12.79;37.46
39411;BME280;26579;43.238;23.124;2023-04-06T07:48:08;96527.00;;;12.61;36.10
39411;BME280;26579;43.238;23.124;2023-04-06T07:50:34;96526.03;;;12.80;37.07
39411;BME280;26579;43.238;23.124;2023-04-06T07:53:00;96541.50;;;12.91;37.67
39411;BME280;26579;43.238;23.124;2023-04-06T07:55:26;96534.53;;;11.91;36.48
39411;BME280;26579;43.238;23.124;2023-04-06T07:57:52;96550.50;;;11.68;37.81
39411;BME280;26579;43.238;23.124;2023-04-06T08:00:18;96544.59;;;11.66;39.42
39411;BME280;26579;43.238;23.124;2023-04-06T08:02:44;96532.78;;;11.15;39.27
39411;BME280;26579;43.238;23.124;2023-04-06T08:05:10;96526.59;;;10.58;40.86
39411;BME280;26579;43.238;23.124;2023-04-06T08:07:35;96520.88;;;10.74;42.48
39411;BME280;26579;43.238;23.124;2023-04-06T08:10:01;96533.59;;;10.96;40.71
39411;BME280;26579;43.238;23.124;2023-04-06T08:12:27;96525.53;;;10.51;40.64
39411;BME280;26579;43.238;23.124;2023-04-06T08:14:53;96526.16;;;10.33;40.90
39411;BME280;26579;43.238;23.124;2023-04-06T08:17:18;96529.41;;;9.85;42.60
39411;BME280;26579;43.238;23.124;2023-04-06T08:19:44;96538.00;;;10.16;42.63
39411;BME280;26579;43.238;23.124;2023-04-06T08:22:10;96535.66;;;10.13;41.31
39411;BME280;26579;43.238;23.124;2023-04-06T08:24:36;96539.81;;;9.85;40.55
39411;BME280;26579;43.238;23.124;2023-04-06T08:27:02;96543.47;;;9.73;41.05
39411;BME280;26579;43.238;23.124;2023-04-06T08:29:28;96541.16;;;9.49;40.86
39411;BME280;26579;43.238;23.124;2023-04-06T08:31:54;96539.81;;;9.13;41.08
39411;BME280;26579;43.238;23.124;2023-04-06T08:34:20;96538.28;;;8.89;41.67
39411;BME280;26579;43.238;23.124;2023-04-06T08:36:46;96541.94;;;8.87;40.67
39411;BME280;26579;43.238;23.124;2023-04-06T08:39:12;96533.09;;;8.89;41.38
39411;BME280;26579;43.238;23.124;2023-04-06T08:41:38;96532.53;;;9.06;41.82
39411;BME280;26579;43.238;23.124;2023-04-06T08:44:06;96527.53;;;9.15;41.22
39411;BME280;26579;43.238;23.124;2023-04-06T08:46:32;96537.69;;;9.18;40.36
39411;BME280;26579;43.238;23.124;2023-04-06T08:49:02;96535.00;;;9.29;41.17
39411;BME280;26579;43.238;23.124;2023-04-06T08:51:29;96539.97;;;9.32;40.80
39411;BME280;26579;43.238;23.124;2023-04-06T08:53:57;96545.66;;;9.26;39.94
39411;BME280;26579;43.238;23.124;2023-04-06T08:56:27;96547.59;;;9.13;40.05
39411;BME280;26579;43.238;23.124;2023-04-06T08:58:54;96537.41;;;9.21;40.26
39411;BME280;26579;43.238;23.124;2023-04-06T09:01:21;96531.97;;;9.24;40.23
39411;BME280;26579;43.238;23.124;2023-04-06T09:03:49;96539.75;;;9.24;40.76
39411;BME280;26579;43.238;23.124;2023-04-06T09:06:16;96545.16;;;9.32;41.02
39411;BME280;26579;43.238;23.124;2023-04-06T09:08:42;96546.72;;;9.44;40.81
39411;BME280;26579;43.238;23.124;2023-04-06T09:11:08;96543.50;;;9.52;40.22
39411;BME280;26579;43.238;23.124;2023-04-06T09:13:49;96536.56;;;9.62;40.97
39411;BME280;26579;43.238;23.124;2023-04-06T09:16:15;96541.75;;;9.83;39.78
39411;BME280;26579;43.238;23.124;2023-04-06T09:18:41;96544.34;;;9.83;38.45
39411;BME280;26579;43.238;23.124;2023-04-06T09:21:07;96540.78;;;9.84;39.59
39411;BME280;26579;43.238;23.124;2023-04-06T09:23:34;96542.13;;;9.79;38.69
39411;BME280;26579;43.238;23.124;2023-04-06T09:26:13;96528.50;;;9.65;38.81
39411;BME280;26579;43.238;23.124;2023-04-06T09:28:50;96517.50;;;9.52;38.56
39411;BME280;26579;43.238;23.124;2023-04-06T09:31:21;96519.53;;;9.48;39.37
39411;BME280;26579;43.238;23.124;2023-04-06T09:33:47;96527.81;;;9.63;39.44
39411;BME280;26579;43.238;23.124;2023-04-06T09:36:13;96520.97;;;9.62;38.56
39411;BME280;26579;43.238;23.124;2023-04-06T09:38:55;96539.13;;;9.83;40.00
39411;BME280;26579;43.238;23.124;2023-04-06T09:41:25;96533.81;;;9.94;38.86
39411;BME280;26579;43.238;23.124;2023-04-06T09:44:14;96528.47;;;9.86;38.45
39411;BME280;26579;43.238;23.124;2023-04-06T09:46:41;96539.97;;;9.93;40.32
39411;BME280;26579;43.238;23.124;2023-04-06T09:49:08;96542.38;;;9.75;38.96
39411;BME280;26579;43.238;23.124;2023-04-06T09:51:45;96529.50;;;9.74;39.33
39411;BME280;26579;43.238;23.124;2023-04-06T09:54:11;96522.75;;;9.62;39.44
39411;BME280;26579;43.238;23.124;2023-04-06T10:02:01;96525.50;;;9.60;40.15
39411;BME280;26579;43.238;23.124;2023-04-06T10:04:43;96513.13;;;9.52;39.71
39411;BME280;26579;43.238;23.124;2023-04-06T10:07:13;96532.25;;;9.72;40.59
39411;BME280;26579;43.238;23.124;2023-04-06T10:09:39;96529.22;;;9.77;40.82
39411;BME280;26579;43.238;23.124;2023-04-06T10:12:06;96528.47;;;9.56;41.01
39411;BME280;26579;43.238;23.124;2023-04-06T10:14:35;96528.19;;;9.59;41.95
39411;BME280;26579;43.238;23.124;2023-04-06T10:17:02;96527.59;;;9.76;41.36
39411;BME280;26579;43.238;23.124;2023-04-06T10:19:32;96527.22;;;9.81;41.47
39411;BME280;26579;43.238;23.124;2023-04-06T10:22:00;96528.72;;;9.83;41.07
39411;BME280;26579;43.238;23.124;2023-04-06T10:24:28;96521.88;;;9.82;41.16
39411;BME280;26579;43.238;23.124;2023-04-06T10:27:12;96526.44;;;9.90;41.62
39411;BME280;26579;43.238;23.124;2023-04-06T10:29:45;96521.69;;;10.05;41.07
39411;BME280;26579;43.238;23.124;2023-04-06T10:32:11;96514.44;;;10.18;40.80
39411;BME280;26579;43.238;23.124;2023-04-06T10:34:37;96505.16;;;10.25;42.03
39411;BME280;26579;43.238;23.124;2023-04-06T10:37:16;96508.63;;;10.35;39.48
39411;BME280;26579;43.238;23.124;2023-04-06T10:39:54;96499.06;;;10.46;39.67
39411;BME280;26579;43.238;23.124;2023-04-06T10:42:45;96512.78;;;10.67;39.25
39411;BME280;26579;43.238;23.124;2023-04-06T10:45:19;96508.13;;;10.80;39.71
39411;BME280;26579;43.238;23.124;2023-04-06T10:47:45;96500.44;;;10.88;37.59
39411;BME280;26579;43.238;23.124;2023-04-06T10:50:14;96491.94;;;10.96;37.77
39411;BME280;26579;43.238;23.124;2023-04-06T10:52:40;96496.59;;;11.12;38.35
39411;BME280;26579;43.238;23.124;2023-04-06T10:55:08;96495.06;;;11.19;38.05
39411;BME280;26579;43.238;23.124;2023-04-06T10:57:34;96502.44;;;11.33;37.53
39411;BME280;26579;43.238;23.124;2023-04-06T11:00:00;96494.03;;;11.40;38.46
39411;BME280;26579;43.238;23.124;2023-04-06T11:02:25;96480.44;;;11.46;38.84
39411;BME280;26579;43.238;23.124;2023-04-06T11:04:56;96492.97;;;11.32;38.27
39411;BME280;26579;43.238;23.124;2023-04-06T11:07:25;96477.75;;;11.38;37.75
39411;BME280;26579;43.238;23.124;2023-04-06T11:09:52;96479.50;;;11.47;38.60
39411;BME280;26579;43.238;23.124;2023-04-06T11:12:26;96480.56;;;11.54;38.64
39411;BME280;26579;43.238;23.124;2023-04-06T11:14:54;96477.47;;;11.41;36.36
39411;BME280;26579;43.238;23.124;2023-04-06T11:17:26;96455.03;;;11.20;36.64
39411;BME280;26579;43.238;23.124;2023-04-06T11:19:51;96475.34;;;11.07;36.49
39411;BME280;26579;43.238;23.124;2023-04-06T11:22:17;96469.03;;;11.09;36.97
39411;BME280;26579;43.238;23.124;2023-04-06T11:24:43;96478.19;;;11.14;37.44
39411;BME280;26579;43.238;23.124;2023-04-06T11:27:09;96477.38;;;11.13;37.54
39411;BME280;26579;43.238;23.124;2023-04-06T11:29:35;96472.69;;;11.17;38.24
39411;BME280;26579;43.238;23.124;2023-04-06T11:32:03;96475.75;;;11.12;37.56
39411;BME280;26579;43.238;23.124;2023-04-06T11:34:37;96471.66;;;11.00;36.71
39411;BME280;26579;43.238;23.124;2023-04-06T11:37:07;96475.47;;;10.96;37.39
39411;BME280;26579;43.238;23.124;2023-04-06T11:39:38;96465.78;;;10.78;37.50
39411;BME280;26579;43.238;23.124;2023-04-06T11:42:04;96474.69;;;10.85;37.13
39411;BME280;26579;43.238;23.124;2023-04-06T11:44:34;96456.06;;;10.71;36.82
39411;BME280;26579;43.238;23.124;2023-04-06T11:47:05;96469.06;;;10.80;38.31
39411;BME280;26579;43.238;23.124;2023-04-06T11:49:32;96465.50;;;10.72;37.31
39411;BME280;26579;43.238;23.124;2023-04-06T11:51:59;96476.06;;;10.60;37.12
39411;BME280;26579;43.238;23.124;2023-04-06T11:54:34;96478.38;;;10.63;37.62
39411;BME280;26579;43.238;23.124;2023-04-06T11:57:01;96447.56;;;10.39;38.64
39411;BME280;26579;43.238;23.124;2023-04-06T11:59:28;96477.56;;;10.63;38.74
39411;BME280;26579;43.238;23.124;2023-04-06T12:01:54;96475.53;;;10.47;37.41
39411;BME280;26579;43.238;23.124;2023-04-06T12:04:20;96469.72;;;10.24;37.48
39411;BME280;26579;43.238;23.124;2023-04-06T12:06:46;96473.09;;;10.15;37.68
39411;BME280;26579;43.238;23.124;2023-04-06T12:09:11;96471.13;;;9.97;38.21
39411;BME280;26579;43.238;23.124;2023-04-06T12:11:37;96450.22;;;9.99;38.88
39411;BME280;26579;43.238;23.124;2023-04-06T12:14:04;96461.06;;;10.14;38.59
39411;BME280;26579;43.238;23.124;2023-04-06T12:16:34;96456.00;;;10.22;39.35
39411;BME280;26579;43.238;23.124;2023-04-06T12:19:00;96463.72;;;10.33;38.38
39411;BME280;26579;43.238;23.124;2023-04-06T12:21:30;96458.94;;;10.38;38.44
39411;BME280;26579;43.238;23.124;2023-04-06T12:23:56;96458.25;;;10.46;38.01
39411;BME280;26579;43.238;23.124;2023-04-06T12:26:22;96444.53;;;10.34;38.45
39411;BME280;26579;43.238;23.124;2023-04-06T12:28:48;96456.72;;;10.43;37.84
39411;BME280;26579;43.238;23.124;2023-04-06T12:31:18;96451.38;;;10.35;37.67
39411;BME280;26579;43.238;23.124;2023-04-06T12:33:47;96449.28;;;10.19;37.74
39411;BME280;26579;43.238;23.124;2023-04-06T12:36:13;96460.50;;;10.20;38.93
39411;BME280;26579;43.238;23.124;2023-04-06T12:38:39;96463.38;;;10.17;37.78
39411;BME280;26579;43.238;23.124;2023-04-06T12:41:05;96464.50;;;10.24;39.36
39411;BME280;26579;43.238;23.124;2023-04-06T12:43:31;96446.53;;;10.11;37.56
39411;BME280;26579;43.238;23.124;2023-04-06T12:45:56;96454.38;;;10.21;37.98
39411;BME280;26579;43.238;23.124;2023-04-06T12:48:22;96458.44;;;10.04;37.39
39411;BME280;26579;43.238;23.124;2023-04-06T12:50:58;96459.91;;;9.87;38.44
39411;BME280;26579;43.238;23.124;2023-04-06T12:53:24;96450.19;;;9.89;38.15
39411;BME280;26579;43.238;23.124;2023-04-06T12:55:50;96456.19;;;9.80;38.08
39411;BME280;26579;43.238;23.124;2023-04-06T12:58:16;96457.56;;;9.74;37.54
39411;BME280;26579;43.238;23.124;2023-04-06T13:00:42;96446.56;;;9.61;37.71
39411;BME280;26579;43.238;23.124;2023-04-06T13:03:08;96449.16;;;9.61;37.69
39411;BME280;26579;43.238;23.124;2023-04-06T13:05:34;96438.59;;;9.53;38.00
39411;BME280;26579;43.238;23.124;2023-04-06T13:07:59;96449.59;;;9.66;38.17